Time;durP1;ratioP1;P1;durP2;ratioP2;P2;SDS_P1;SDS_P2;PMS_P1;PMS_P2;Temp;Humidity;BMP_temperature;BMP_pressure;BME280_temperature;BME280_humidity;BME280_pressure;Samples;Min_cycle;Max_cycle;Signal;HPM_P1;HPM_P2
2023/07/05 00:01:39;;;;;;;11.10;7.03;;;23.80;99.90;;;;;;5045794;28;20292;-75
2023/07/05 00:04:05;;;;;;;10.03;7.80;;;23.80;99.90;;;;;;5045538;28;20311;-80
2023/07/05 00:06:31;;;;;;;7.97;6.60;;;23.80;99.90;;;;;;5061240;28;20241;-75
2023/07/05 00:08:57;;;;;;;9.83;7.50;;;23.80;99.90;;;;;;5045607;28;20184;-75
2023/07/05 00:11:23;;;;;;;9.30;7.10;;;23.80;99.90;;;;;;5045816;28;20200;-81
2023/07/05 00:13:49;;;;;;;10.93;7.37;;;23.80;99.90;;;;;;5060779;28;20477;-81
2023/07/05 00:16:14;;;;;;;9.10;7.50;;;23.80;99.90;;;;;;5047379;28;20520;-75
2023/07/05 00:18:40;;;;;;;12.33;7.43;;;23.80;99.90;;;;;;5048986;28;20175;-75
2023/07/05 00:21:08;;;;;;;8.97;6.50;;;23.80;99.90;;;;;;5064526;28;20196;-75
2023/07/05 00:23:35;;;;;;;9.47;6.97;;;23.80;99.90;;;;;;5049452;28;20212;-80
2023/07/05 00:26:02;;;;;;;11.47;8.20;;;23.80;99.90;;;;;;5048702;28;20430;-75
2023/07/05 00:28:28;;;;;;;8.90;7.43;;;23.80;99.90;;;;;;5049087;28;20562;-81
2023/07/05 00:30:54;;;;;;;8.90;7.13;;;23.70;99.90;;;;;;5048834;28;20768;-81
2023/07/05 00:33:20;;;;;;;9.23;7.63;;;23.70;99.90;;;;;;5048504;28;20212;-74
2023/07/05 00:35:50;;;;;;;8.67;7.57;;;23.70;99.90;;;;;;5047378;28;20664;-80
2023/07/05 00:38:17;;;;;;;11.23;7.80;;;23.70;99.90;;;;;;5048947;28;20394;-81
2023/07/05 00:40:43;;;;;;;9.03;6.83;;;23.70;99.90;;;;;;5048905;28;20976;-74
2023/07/05 00:43:10;;;;;;;8.00;7.00;;;23.70;99.90;;;;;;5049050;28;20424;-80
2023/07/05 00:45:56;;;;;;;8.03;7.23;;;23.70;99.90;;;;;;5048941;28;20413;-81
2023/07/05 00:48:34;;;;;;;9.50;7.60;;;23.70;99.90;;;;;;5048773;28;20755;-75
2023/07/05 00:51:04;;;;;;;7.73;6.87;;;23.70;99.90;;;;;;5063418;28;20442;-80
2023/07/05 00:53:33;;;;;;;9.73;8.03;;;23.70;99.90;;;;;;5048746;28;20465;-79
2023/07/05 00:56:07;;;;;;;9.17;7.47;;;23.70;99.90;;;;;;5063434;28;20441;-75
2023/07/05 00:58:34;;;;;;;8.90;7.63;;;23.70;99.90;;;;;;5047194;28;20467;-81
2023/07/05 01:00:59;;;;;;;10.83;8.27;;;23.60;99.90;;;;;;5048429;28;20443;-75
2023/07/05 01:03:27;;;;;;;8.23;7.43;;;23.60;99.90;;;;;;5046989;28;20468;-80
2023/07/05 01:05:56;;;;;;;12.43;8.77;;;23.60;99.90;;;;;;5063593;28;20312;-75
2023/07/05 01:08:22;;;;;;;11.20;7.90;;;23.60;99.90;;;;;;5048256;28;20906;-81
2023/07/05 01:10:56;;;;;;;11.20;8.70;;;23.60;99.90;;;;;;5048242;28;20438;-75
2023/07/05 01:13:30;;;;;;;10.60;8.17;;;23.60;99.90;;;;;;5048381;28;20464;-80
2023/07/05 01:16:30;;;;;;;9.40;8.03;;;23.60;99.90;;;;;;5063310;28;20441;-80
2023/07/05 01:18:58;;;;;;;9.73;8.67;;;23.60;99.90;;;;;;5063186;28;20426;-81
2023/07/05 01:22:12;;;;;;;10.17;7.90;;;23.50;99.90;;;;;;5063260;28;20535;-81
2023/07/05 01:24:57;;;;;;;11.30;8.57;;;23.50;99.90;;;;;;5046500;28;20513;-75
2023/07/05 01:27:28;;;;;;;10.47;8.53;;;23.50;99.90;;;;;;5046570;28;20475;-74
2023/07/05 01:30:21;;;;;;;12.23;8.63;;;23.40;99.90;;;;;;5047861;28;20838;-75
2023/07/05 01:32:53;;;;;;;11.80;8.23;;;23.50;99.90;;;;;;5047712;28;21004;-81
2023/07/05 01:35:34;;;;;;;9.77;8.77;;;23.50;99.90;;;;;;5047429;28;20446;-81
2023/07/05 01:38:03;;;;;;;10.97;9.80;;;23.50;99.90;;;;;;5047646;28;20405;-81
2023/07/05 01:40:29;;;;;;;10.00;8.60;;;23.40;99.90;;;;;;5062532;28;20435;-75
2023/07/05 01:43:01;;;;;;;11.03;9.57;;;23.40;99.90;;;;;;5048221;28;20444;-75
2023/07/05 01:45:32;;;;;;;9.83;8.10;;;23.40;99.90;;;;;;5047430;28;20188;-75
2023/07/05 01:48:10;;;;;;;9.67;8.17;;;23.40;99.90;;;;;;5047920;28;20452;-75
2023/07/05 01:50:48;;;;;;;10.43;8.60;;;23.40;99.90;;;;;;5045530;28;20502;-77
2023/07/05 01:53:32;;;;;;;12.00;9.80;;;23.40;99.90;;;;;;5047588;28;20465;-74
2023/07/05 01:56:03;;;;;;;11.60;8.60;;;23.40;99.90;;;;;;5062348;28;20803;-75
2023/07/05 01:58:34;;;;;;;10.27;8.30;;;23.40;99.90;;;;;;5062650;28;20459;-81
2023/07/05 02:01:03;;;;;;;12.03;8.30;;;23.40;99.90;;;;;;5047588;28;20437;-80
2023/07/05 02:03:30;;;;;;;8.83;7.67;;;23.40;99.90;;;;;;5046871;28;20469;-75
2023/07/05 02:05:56;;;;;;;10.70;7.93;;;23.40;99.90;;;;;;5046985;28;20528;-81
2023/07/05 02:08:27;;;;;;;11.17;8.57;;;23.40;99.90;;;;;;5062552;28;20421;-80
2023/07/05 02:10:53;;;;;;;11.10;8.60;;;23.40;99.90;;;;;;5047231;28;20910;-75
2023/07/05 02:13:19;;;;;;;9.10;7.87;;;23.40;99.90;;;;;;5045682;28;20465;-75
2023/07/05 02:15:48;;;;;;;12.37;9.07;;;23.40;99.90;;;;;;5046782;28;20184;-75
2023/07/05 02:18:14;;;;;;;9.60;8.53;;;23.30;99.90;;;;;;5046833;28;20172;-80
2023/07/05 02:20:41;;;;;;;9.30;7.80;;;23.30;99.90;;;;;;5046563;28;20423;-77
2023/07/05 02:23:07;;;;;;;10.00;8.20;;;23.30;99.90;;;;;;5047228;28;20931;-80
2023/07/05 02:25:35;;;;;;;13.37;8.80;;;23.30;99.90;;;;;;5045010;28;20429;-80
2023/07/05 02:28:05;;;;;;;9.80;8.27;;;23.30;99.90;;;;;;5047143;28;20418;-80
2023/07/05 02:30:33;;;;;;;8.63;7.47;;;23.30;99.90;;;;;;5046875;28;20899;-80
2023/07/05 02:32:59;;;;;;;10.00;8.40;;;23.20;99.90;;;;;;5062251;28;20999;-75
2023/07/05 02:35:24;;;;;;;13.03;8.30;;;23.20;99.90;;;;;;5046242;28;20441;-80
2023/07/05 02:37:50;;;;;;;9.50;7.87;;;23.20;99.90;;;;;;5061163;28;20664;-75
2023/07/05 02:40:16;;;;;;;9.57;8.17;;;23.20;99.90;;;;;;5060906;28;20785;-75
2023/07/05 02:42:41;;;;;;;9.40;7.60;;;23.20;99.90;;;;;;5046626;28;20542;-80
2023/07/05 02:45:07;;;;;;;10.80;7.70;;;23.20;99.90;;;;;;5061940;28;20174;-74
2023/07/05 02:47:33;;;;;;;10.10;8.20;;;23.20;99.90;;;;;;5046982;28;20630;-75
2023/07/05 02:49:59;;;;;;;11.37;7.73;;;23.10;99.90;;;;;;5045566;28;20496;-81
2023/07/05 02:52:24;;;;;;;9.10;7.50;;;23.10;99.90;;;;;;5046671;28;20258;-75
2023/07/05 02:54:50;;;;;;;14.30;8.73;;;23.10;99.90;;;;;;5061600;28;20522;-80
2023/07/05 02:57:15;;;;;;;9.30;7.83;;;23.10;99.90;;;;;;5046001;28;20469;-79
2023/07/05 02:59:41;;;;;;;11.90;8.97;;;23.10;99.90;;;;;;5061637;28;20237;-74
2023/07/05 03:02:09;;;;;;;10.60;8.40;;;23.20;99.90;;;;;;5046588;28;20195;-75
2023/07/05 03:04:34;;;;;;;11.77;8.20;;;23.20;99.90;;;;;;5044744;28;20221;-81
2023/07/05 03:07:00;;;;;;;14.00;9.03;;;23.30;99.90;;;;;;5046619;28;20462;-75
2023/07/05 03:09:25;;;;;;;10.33;8.23;;;23.30;99.90;;;;;;5046042;28;20180;-80
2023/07/05 03:11:51;;;;;;;9.47;7.93;;;23.30;99.90;;;;;;5061845;28;20553;-80
2023/07/05 03:14:17;;;;;;;12.70;9.03;;;23.30;99.90;;;;;;5061487;28;20175;-81
2023/07/05 03:16:43;;;;;;;12.33;8.07;;;23.30;99.90;;;;;;5045957;28;20204;-80
2023/07/05 03:19:08;;;;;;;9.60;8.43;;;23.40;99.90;;;;;;5046347;28;20498;-75
2023/07/05 03:21:34;;;;;;;11.90;8.90;;;23.40;99.90;;;;;;5046115;28;20460;-75
2023/07/05 03:24:00;;;;;;;13.70;9.60;;;23.40;99.90;;;;;;5061008;28;20796;-79
2023/07/05 03:26:25;;;;;;;11.70;9.60;;;23.40;99.90;;;;;;5046332;28;20198;-75
2023/07/05 03:28:51;;;;;;;10.27;8.60;;;23.40;99.90;;;;;;5044441;28;20643;-80
2023/07/05 03:31:17;;;;;;;10.30;8.80;;;23.40;99.90;;;;;;5061603;28;20287;-74
2023/07/05 03:33:43;;;;;;;13.47;8.63;;;23.40;99.90;;;;;;5046121;28;20372;-81
2023/07/05 03:36:17;;;;;;;11.27;8.50;;;23.40;99.90;;;;;;5045957;28;20774;-75
2023/07/05 03:38:43;;;;;;;10.87;8.80;;;23.40;99.90;;;;;;5045048;28;20709;-80
2023/07/05 03:41:19;;;;;;;12.40;8.87;;;23.30;99.90;;;;;;5061478;28;20493;-80
2023/07/05 03:43:47;;;;;;;11.63;9.37;;;23.20;99.90;;;;;;5045946;28;20411;-81
2023/07/05 03:46:14;;;;;;;10.13;8.50;;;23.20;99.90;;;;;;5061403;28;20576;-81
2023/07/05 03:48:42;;;;;;;10.90;7.97;;;23.10;99.90;;;;;;5061069;28;20517;-80
2023/07/05 03:51:17;;;;;;;9.30;8.30;;;23.10;99.90;;;;;;5046789;28;20832;-75
2023/07/05 03:53:42;;;;;;;12.27;9.30;;;23.00;99.90;;;;;;5048073;28;21066;-75
2023/07/05 03:56:10;;;;;;;9.73;8.73;;;23.00;99.90;;;;;;5047412;28;20538;-80
2023/07/05 03:58:36;;;;;;;73.40;49.07;;;23.00;99.90;;;;;;5049278;28;20194;-75
2023/07/05 04:01:08;;;;;;;75.47;54.63;;;23.00;99.90;;;;;;5049217;28;20456;-75
2023/07/05 04:03:35;;;;;;;14.40;9.40;;;23.00;99.90;;;;;;5064780;28;21098;-75
2023/07/05 04:06:02;;;;;;;11.13;9.20;;;23.10;99.90;;;;;;5049288;28;20430;-78
2023/07/05 04:08:28;;;;;;;12.73;8.90;;;23.10;99.90;;;;;;5064755;28;20412;-75
2023/07/05 04:10:53;;;;;;;10.93;8.80;;;23.10;99.90;;;;;;5064315;28;20440;-81
2023/07/05 04:13:19;;;;;;;13.20;9.13;;;23.10;99.90;;;;;;5049488;28;21041;-74
2023/07/05 04:15:45;;;;;;;11.90;9.33;;;23.20;99.90;;;;;;5048994;28;20194;-80
2023/07/05 04:18:10;;;;;;;11.37;9.60;;;23.20;99.90;;;;;;5054330;28;20207;-80
2023/07/05 04:20:37;;;;;;;15.87;8.87;;;23.20;99.90;;;;;;5049137;28;20177;-75
2023/07/05 04:23:03;;;;;;;11.80;9.00;;;23.20;99.90;;;;;;5043315;28;20178;-80
2023/07/05 04:25:29;;;;;;;13.33;10.20;;;23.30;99.90;;;;;;5060537;28;20499;-75
2023/07/05 04:27:54;;;;;;;10.60;9.27;;;23.30;99.90;;;;;;5067714;28;20568;-76
2023/07/05 04:30:20;;;;;;;11.43;9.30;;;23.40;99.90;;;;;;5067462;28;20242;-80
2023/07/05 04:32:46;;;;;;;12.00;9.80;;;23.40;99.90;;;;;;5069005;28;20213;-79
2023/07/05 04:35:11;;;;;;;11.43;8.80;;;23.40;99.90;;;;;;5065752;28;20183;-75
2023/07/05 04:37:37;;;;;;;11.33;10.17;;;23.40;99.90;;;;;;5066248;28;20701;-74
2023/07/05 04:40:03;;;;;;;12.23;9.90;;;23.40;99.90;;;;;;5066261;28;20403;-81
2023/07/05 04:42:29;;;;;;;11.53;8.50;;;23.40;99.90;;;;;;5065940;28;20699;-81
2023/07/05 04:44:55;;;;;;;18.20;9.27;;;23.50;99.90;;;;;;5056429;28;20439;-75
2023/07/05 04:47:20;;;;;;;12.67;9.63;;;23.50;99.90;;;;;;5057864;28;20442;-74
2023/07/05 04:49:47;;;;;;;14.03;9.60;;;23.50;99.90;;;;;;5057243;28;20170;-74
2023/07/05 04:52:13;;;;;;;12.80;8.87;;;23.60;99.90;;;;;;5050600;28;20450;-75
2023/07/05 04:54:38;;;;;;;11.47;9.43;;;23.60;99.90;;;;;;5046438;28;20428;-74
2023/07/05 04:57:05;;;;;;;11.33;9.70;;;23.60;99.90;;;;;;5048355;28;20210;-75
2023/07/05 04:59:30;;;;;;;12.73;9.20;;;23.60;99.90;;;;;;5047984;28;20183;-74
2023/07/05 05:01:56;;;;;;;14.97;9.20;;;23.60;99.90;;;;;;5046373;28;20438;-75
2023/07/05 05:04:22;;;;;;;11.97;9.80;;;23.70;99.90;;;;;;5048348;28;20419;-80
2023/07/05 05:06:47;;;;;;;14.80;10.37;;;23.70;99.90;;;;;;5048169;28;20196;-75
2023/07/05 05:09:13;;;;;;;14.87;9.17;;;23.80;99.90;;;;;;5051839;28;20188;-81
2023/07/05 05:11:39;;;;;;;10.73;9.07;;;23.80;99.90;;;;;;5056230;28;20202;-81
2023/07/05 05:14:04;;;;;;;13.30;9.57;;;23.80;99.90;;;;;;5054676;28;20397;-75
2023/07/05 05:16:32;;;;;;;13.07;8.77;;;23.80;99.90;;;;;;5057311;28;20340;-75
2023/07/05 05:18:59;;;;;;;10.20;7.90;;;23.90;99.90;;;;;;5056959;28;20169;-81
2023/07/05 05:21:24;;;;;;;11.67;8.00;;;24.00;99.90;;;;;;5052881;28;20472;-81
2023/07/05 05:23:50;;;;;;;11.70;8.30;;;24.00;99.90;;;;;;5053771;28;20518;-75
2023/07/05 05:26:16;;;;;;;10.17;7.50;;;24.10;99.90;;;;;;5061685;28;20203;-81
2023/07/05 05:28:41;;;;;;;9.63;7.47;;;24.10;99.90;;;;;;5064945;28;20371;-80
2023/07/05 05:31:09;;;;;;;195.60;135.63;;;24.20;99.90;;;;;;5066656;28;20204;-74
2023/07/05 05:33:35;;;;;;;21.30;16.63;;;24.20;99.90;;;;;;5066964;28;20218;-76
2023/07/05 05:36:01;;;;;;;10.73;8.50;;;24.20;99.90;;;;;;5065669;28;21021;-76
2023/07/05 05:38:27;;;;;;;9.80;8.33;;;24.30;99.90;;;;;;5066256;28;20494;-76
2023/07/05 05:41:03;;;;;;;10.63;7.70;;;24.20;99.90;;;;;;5065239;28;20206;-76
2023/07/05 05:43:30;;;;;;;9.00;7.40;;;24.20;99.90;;;;;;5065177;28;20173;-81
2023/07/05 05:45:55;;;;;;;9.63;7.80;;;24.30;99.90;;;;;;5064993;28;21029;-75
2023/07/05 05:48:21;;;;;;;10.17;7.73;;;24.30;99.90;;;;;;5066728;28;20502;-75
2023/07/05 05:50:48;;;;;;;10.47;7.90;;;24.40;99.90;;;;;;5062910;28;20475;-75
2023/07/05 05:53:14;;;;;;;11.37;8.93;;;24.40;99.90;;;;;;5044848;28;20277;-75
2023/07/05 05:55:40;;;;;;;9.63;8.43;;;24.40;99.90;;;;;;5043455;28;20825;-75
2023/07/05 05:58:07;;;;;;;9.50;7.77;;;24.50;99.90;;;;;;5045110;28;20423;-80
2023/07/05 06:00:33;;;;;;;53.17;42.33;;;24.60;99.90;;;;;;5042578;28;20414;-75
2023/07/05 06:02:59;;;;;;;9.33;7.80;;;24.60;99.90;;;;;;5043001;28;20846;-75
2023/07/05 06:05:25;;;;;;;8.97;7.80;;;24.60;99.90;;;;;;5051598;28;20196;-79
2023/07/05 06:07:53;;;;;;;10.40;7.20;;;24.70;99.90;;;;;;5061415;28;20220;-76
2023/07/05 06:10:21;;;;;;;9.10;7.40;;;24.70;99.90;;;;;;5060415;28;20433;-75
2023/07/05 06:12:47;;;;;;;9.77;7.40;;;24.70;99.90;;;;;;5061406;28;20557;-75
2023/07/05 06:15:14;;;;;;;9.37;8.23;;;24.80;99.90;;;;;;5057120;28;20513;-81
2023/07/05 06:17:40;;;;;;;8.87;6.87;;;24.90;99.90;;;;;;5059392;28;20820;-75
2023/07/05 06:20:06;;;;;;;8.90;7.93;;;24.90;99.90;;;;;;5062520;28;20762;-80
2023/07/05 06:22:33;;;;;;;10.37;7.93;;;25.00;99.90;;;;;;5057780;28;20467;-80
2023/07/05 06:24:59;;;;;;;11.10;7.73;;;25.10;99.90;;;;;;5058760;28;20491;-81
2023/07/05 06:27:25;;;;;;;9.90;8.10;;;25.10;99.90;;;;;;5060212;28;20454;-75
2023/07/05 06:29:50;;;;;;;8.37;7.07;;;25.20;99.90;;;;;;5061064;28;20179;-81
2023/07/05 06:32:16;;;;;;;9.40;7.47;;;25.20;99.90;;;;;;5062078;28;20209;-80
2023/07/05 06:34:42;;;;;;;8.70;7.60;;;25.30;99.90;;;;;;5056028;28;20220;-81
2023/07/05 06:37:07;;;;;;;8.37;6.93;;;25.40;99.90;;;;;;5053353;28;20201;-81
2023/07/05 06:39:33;;;;;;;8.23;7.33;;;25.50;99.90;;;;;;5065694;28;20282;-81
2023/07/05 06:41:58;;;;;;;10.40;7.60;;;25.60;99.90;;;;;;5055713;28;20704;-80
2023/07/05 06:44:24;;;;;;;9.70;7.57;;;25.60;99.90;;;;;;5052581;28;20215;-75
2023/07/05 06:46:50;;;;;;;9.00;7.30;;;25.60;99.90;;;;;;5055088;28;20373;-75
2023/07/05 06:49:16;;;;;;;14.50;11.73;;;25.60;99.90;;;;;;5056627;28;20219;-81
2023/07/05 06:51:41;;;;;;;13.37;9.67;;;25.60;99.90;;;;;;5039617;28;20542;-75
2023/07/05 06:54:07;;;;;;;9.40;7.57;;;25.60;99.90;;;;;;5058069;28;20681;-81
2023/07/05 06:56:35;;;;;;;9.90;6.87;;;25.70;99.90;;;;;;5060824;28;20566;-81
2023/07/05 06:59:01;;;;;;;9.13;6.80;;;25.80;99.90;;;;;;5056459;28;20583;-75
2023/07/05 07:01:26;;;;;;;11.80;7.90;;;25.70;99.90;;;;;;5061618;28;20484;-75
2023/07/05 07:03:52;;;;;;;8.03;7.17;;;25.80;99.90;;;;;;5055842;28;20254;-81
2023/07/05 07:06:18;;;;;;;9.63;7.00;;;25.90;99.90;;;;;;5055528;28;20653;-80
2023/07/05 07:08:43;;;;;;;7.73;6.73;;;25.70;99.90;;;;;;5054036;28;20195;-81
2023/07/05 07:11:11;;;;;;;8.23;6.97;;;25.70;99.90;;;;;;5051169;28;20307;-75
2023/07/05 07:13:37;;;;;;;7.63;6.53;;;25.90;99.90;;;;;;5055340;28;20219;-80
2023/07/05 07:16:06;;;;;;;17.13;12.83;;;26.00;99.90;;;;;;5056121;28;20446;-81
2023/07/05 07:18:32;;;;;;;7.77;6.30;;;26.10;99.90;;;;;;5052543;28;20590;-75
2023/07/05 07:21:01;;;;;;;8.27;6.80;;;26.20;99.90;;;;;;5057183;28;20656;-75
2023/07/05 07:23:27;;;;;;;7.83;7.03;;;26.20;99.90;;;;;;5057574;28;20425;-75
2023/07/05 07:26:00;;;;;;;6.73;5.83;;;26.30;99.90;;;;;;5060547;28;20450;-75
2023/07/05 07:28:26;;;;;;;8.07;6.30;;;26.40;99.90;;;;;;5060040;28;20942;-81
2023/07/05 07:30:52;;;;;;;9.33;6.40;;;26.40;99.90;;;;;;5061623;28;20480;-81
2023/07/05 07:33:18;;;;;;;8.10;6.47;;;26.50;99.90;;;;;;5061011;28;20205;-81
2023/07/05 07:35:44;;;;;;;7.87;6.93;;;26.50;99.90;;;;;;5060935;28;20495;-81
2023/07/05 07:38:09;;;;;;;8.90;6.70;;;26.60;99.90;;;;;;5062473;28;20230;-75
2023/07/05 07:40:38;;;;;;;7.80;5.90;;;26.50;99.90;;;;;;5060255;28;20177;-75
2023/07/05 07:43:06;;;;;;;7.60;6.80;;;26.60;99.90;;;;;;5055398;28;20529;-75
2023/07/05 07:45:32;;;;;;;8.17;6.57;;;26.70;99.90;;;;;;5059212;28;20568;-81
2023/07/05 07:47:58;;;;;;;6.83;6.10;;;26.80;99.90;;;;;;5056683;28;20967;-80
2023/07/05 07:50:25;;;;;;;8.83;7.50;;;26.80;99.90;;;;;;5061844;28;20430;-81
2023/07/05 07:52:50;;;;;;;7.00;6.00;;;26.90;99.90;;;;;;5068991;28;20499;-75
2023/07/05 07:55:16;;;;;;;8.30;7.10;;;27.00;99.90;;;;;;5064864;28;20444;-75
2023/07/05 07:57:42;;;;;;;8.37;6.70;;;27.00;99.90;;;;;;5057634;28;20460;-82
2023/07/05 08:00:10;;;;;;;7.20;6.47;;;27.00;99.90;;;;;;5054971;28;20185;-80
2023/07/05 08:02:37;;;;;;;7.23;6.53;;;27.10;99.90;;;;;;5063285;28;20238;-75
2023/07/05 08:05:12;;;;;;;8.60;7.20;;;27.20;99.90;;;;;;5060975;28;20436;-75
2023/07/05 08:07:37;;;;;;;6.97;6.30;;;27.20;99.90;;;;;;5059673;28;20622;-75
2023/07/05 08:10:03;;;;;;;10.00;6.77;;;27.20;99.90;;;;;;5059342;28;20616;-81
2023/07/05 08:12:29;;;;;;;9.80;7.00;;;27.30;99.90;;;;;;5063891;28;20213;-75
2023/07/05 08:14:55;;;;;;;9.07;7.10;;;27.40;99.90;;;;;;5050162;28;20430;-81
2023/07/05 08:17:21;;;;;;;10.43;6.60;;;27.40;99.90;;;;;;5062437;28;20220;-81
2023/07/05 08:19:47;;;;;;;8.77;6.40;;;27.50;99.90;;;;;;5057491;28;20659;-81
2023/07/05 08:22:13;;;;;;;9.43;6.60;;;27.50;99.90;;;;;;5057112;28;20646;-76
2023/07/05 08:24:38;;;;;;;6.37;5.77;;;27.60;99.90;;;;;;5074231;28;20177;-76
2023/07/05 08:27:05;;;;;;;6.10;5.50;;;27.70;99.90;;;;;;5058017;28;20208;-76
2023/07/05 08:29:31;;;;;;;9.43;5.37;;;27.80;99.90;;;;;;5056775;28;20215;-75
2023/07/05 08:31:57;;;;;;;6.83;5.70;;;27.80;99.90;;;;;;5056815;28;20517;-75
2023/07/05 08:34:22;;;;;;;7.23;5.83;;;27.80;99.90;;;;;;5057303;28;20179;-81
2023/07/05 08:36:48;;;;;;;7.23;5.70;;;27.90;99.90;;;;;;5056047;28;21009;-81
2023/07/05 08:39:14;;;;;;;6.30;5.70;;;27.90;99.90;;;;;;5058621;28;20204;-75
2023/07/05 08:41:43;;;;;;;8.40;5.93;;;27.90;99.90;;;;;;5059260;28;20774;-76
2023/07/05 08:44:27;;;;;;;7.07;6.37;;;28.00;99.90;;;;;;5057067;28;20437;-76
2023/07/05 08:47:02;;;;;;;7.00;6.07;;;28.00;99.90;;;;;;5060117;28;20455;-75
2023/07/05 08:50:01;;;;;;;7.03;6.30;;;28.10;99.90;;;;;;5048514;28;20497;-76
2023/07/05 08:52:32;;;;;;;8.20;6.70;;;28.10;99.90;;;;;;5054104;28;20483;-81
2023/07/05 08:55:02;;;;;;;7.53;5.73;;;28.10;99.90;;;;;;5058954;28;20514;-81
2023/07/05 08:57:33;;;;;;;8.27;6.50;;;28.20;99.90;;;;;;5051606;28;20550;-82
2023/07/05 09:00:08;;;;;;;7.57;6.30;;;28.20;99.90;;;;;;5053667;28;20438;-75
2023/07/05 09:02:34;;;;;;;8.10;7.07;;;28.30;99.90;;;;;;5062173;28;20479;-76
2023/07/05 09:05:01;;;;;;;8.70;6.13;;;28.30;99.90;;;;;;5048571;28;20445;-76
2023/07/05 09:07:49;;;;;;;8.23;7.20;;;28.40;99.90;;;;;;5058956;28;20205;-76
2023/07/05 09:10:42;;;;;;;9.97;7.17;;;28.50;99.90;;;;;;5067209;28;20887;-75
2023/07/05 09:13:34;;;;;;;8.40;7.37;;;28.50;99.90;;;;;;5056868;28;20481;-82
2023/07/05 09:16:04;;;;;;;7.80;7.07;;;28.50;99.90;;;;;;5055035;28;20455;-77
2023/07/05 09:18:56;;;;;;;8.10;7.30;;;28.50;99.90;;;;;;5060287;28;20797;-76
2023/07/05 09:21:36;;;;;;;12.40;8.10;;;28.70;99.90;;;;;;5054503;28;20843;-75
2023/07/05 09:24:24;;;;;;;8.70;7.50;;;28.70;99.90;;;;;;5053872;28;20868;-75
2023/07/05 09:26:58;;;;;;;8.97;8.07;;;28.80;99.90;;;;;;5051797;28;20465;-75
2023/07/05 09:29:36;;;;;;;9.20;8.20;;;28.90;99.90;;;;;;5055592;28;20461;-81
2023/07/05 09:32:11;;;;;;;8.93;8.07;;;28.90;99.90;;;;;;5052026;28;20461;-75
2023/07/05 09:34:42;;;;;;;9.43;7.57;;;29.10;99.90;;;;;;5055319;28;20458;-81
2023/07/05 09:37:23;;;;;;;10.97;7.60;;;29.20;99.90;;;;;;5054611;28;20545;-76
2023/07/05 09:40:08;;;;;;;9.13;8.23;;;29.20;99.90;;;;;;5053466;28;20428;-81
2023/07/05 09:42:41;;;;;;;10.50;8.30;;;29.20;99.90;;;;;;5057904;28;21169;-81
2023/07/05 09:45:15;;;;;;;8.60;7.80;;;29.30;99.90;;;;;;5054053;28;20440;-81
2023/07/05 09:47:43;;;;;;;10.77;7.30;;;29.30;99.90;;;;;;5060383;28;21042;-81
2023/07/05 09:50:16;;;;;;;8.50;7.60;;;29.40;99.90;;;;;;5056107;28;21150;-82
2023/07/05 09:52:43;;;;;;;8.70;7.50;;;29.50;99.90;;;;;;5054583;28;20479;-76
2023/07/05 09:55:14;;;;;;;8.10;7.30;;;29.50;99.90;;;;;;5069619;28;20446;-81
2023/07/05 09:57:39;;;;;;;8.10;7.20;;;29.60;99.90;;;;;;5055838;28;20664;-81
2023/07/05 10:00:22;;;;;;;7.67;6.97;;;29.60;99.90;;;;;;5054208;28;20976;-76
2023/07/05 10:02:49;;;;;;;8.97;8.07;;;29.70;99.90;;;;;;5057793;28;20238;-75
2023/07/05 10:05:23;;;;;;;7.30;6.60;;;29.80;99.90;;;;;;5047858;28;20490;-79
2023/07/05 10:08:01;;;;;;;8.90;8.00;;;29.80;99.90;;;;;;5051808;28;20811;-80
2023/07/05 10:10:42;;;;;;;8.30;7.50;;;29.90;99.90;;;;;;5052232;28;21028;-75
2023/07/05 10:13:19;;;;;;;10.93;8.50;;;29.90;99.90;;;;;;5048908;28;20817;-80
2023/07/05 10:15:48;;;;;;;8.30;7.50;;;30.00;99.90;;;;;;5051643;28;20454;-75
2023/07/05 10:18:30;;;;;;;9.43;8.27;;;30.10;99.90;;;;;;5052171;28;20536;-80
2023/07/05 10:21:00;;;;;;;8.87;7.97;;;30.20;99.90;;;;;;5050996;28;20590;-75
2023/07/05 10:23:26;;;;;;;8.80;7.90;;;30.20;99.90;;;;;;5057172;28;20502;-75
2023/07/05 10:25:53;;;;;;;8.13;7.43;;;30.20;99.90;;;;;;5056430;28;21076;-75
2023/07/05 10:28:25;;;;;;;8.30;7.47;;;30.30;99.90;;;;;;5057813;28;20676;-75
2023/07/05 10:30:55;;;;;;;10.30;7.40;;;30.30;99.90;;;;;;5058082;28;20449;-80
2023/07/05 10:33:27;;;;;;;8.67;7.77;;;30.30;99.90;;;;;;5048124;28;20470;-75
2023/07/05 10:36:12;;;;;;;8.07;7.27;;;30.40;99.90;;;;;;5050361;28;21021;-75
2023/07/05 10:38:41;;;;;;;8.03;7.23;;;30.40;99.90;;;;;;5050878;28;20540;-75
2023/07/05 10:41:35;;;;;;;8.30;7.57;;;30.50;99.90;;;;;;5043831;28;21020;-75
2023/07/05 10:44:30;;;;;;;9.40;7.37;;;30.60;99.90;;;;;;5047204;28;20537;-79
2023/07/05 10:46:56;;;;;;;8.43;7.63;;;30.70;99.90;;;;;;5050758;28;20572;-75
2023/07/05 10:49:23;;;;;;;8.20;7.30;;;30.70;99.90;;;;;;5047737;28;20791;-79
2023/07/05 10:52:03;;;;;;;8.83;7.93;;;30.70;99.90;;;;;;5047684;28;20798;-80
2023/07/05 10:54:48;;;;;;;8.10;7.30;;;30.60;99.90;;;;;;5051126;28;20489;-75
2023/07/05 10:57:24;;;;;;;10.80;8.07;;;30.60;99.90;;;;;;5049710;28;20558;-75
2023/07/05 11:00:11;;;;;;;9.87;7.70;;;30.70;99.90;;;;;;5053043;28;20799;-75
2023/07/05 11:02:55;;;;;;;9.80;8.30;;;30.70;99.90;;;;;;5051851;28;21404;-76
2023/07/05 11:05:55;;;;;;;7.87;7.07;;;30.70;99.90;;;;;;5050274;28;20503;-80
2023/07/05 11:08:28;;;;;;;9.33;8.43;;;30.60;99.90;;;;;;5047724;28;20806;-75
2023/07/05 11:11:02;;;;;;;8.90;8.00;;;30.70;99.90;;;;;;5053164;28;20464;-77
2023/07/05 11:13:29;;;;;;;8.43;7.63;;;30.70;99.50;;;;;;5047888;28;20819;-76
2023/07/05 11:15:56;;;;;;;9.17;8.27;;;30.60;99.90;;;;;;5054563;28;20579;-76
2023/07/05 11:18:23;;;;;;;10.90;8.83;;;30.60;99.90;;;;;;5044409;28;20738;-74
2023/07/05 11:20:55;;;;;;;8.33;7.53;;;30.50;99.90;;;;;;5051208;28;21013;-81
2023/07/05 11:23:43;;;;;;;8.73;7.73;;;30.30;99.90;;;;;;5053846;28;20510;-75
2023/07/05 11:26:28;;;;;;;10.47;7.80;;;30.20;99.90;;;;;;5051697;28;20493;-76
2023/07/05 11:28:53;;;;;;;8.73;7.50;;;30.40;99.90;;;;;;5068286;28;20442;-79
2023/07/05 11:31:28;;;;;;;9.07;8.27;;;30.50;99.90;;;;;;5055057;28;20875;-76
2023/07/05 11:34:25;;;;;;;10.17;9.27;;;30.70;99.90;;;;;;5055954;28;20208;-76
2023/07/05 11:36:53;;;;;;;8.60;7.80;;;30.80;99.80;;;;;;5050150;28;20553;-80
2023/07/05 11:39:34;;;;;;;9.20;8.30;;;30.90;99.40;;;;;;5055242;28;20469;-75
2023/07/05 11:42:12;;;;;;;9.67;8.67;;;31.00;99.50;;;;;;5050042;28;20819;-75
2023/07/05 11:44:38;;;;;;;11.73;9.00;;;31.10;98.70;;;;;;5071312;28;20912;-79
2023/07/05 11:47:04;;;;;;;10.40;9.40;;;31.20;98.60;;;;;;5059683;28;20572;-79
2023/07/05 11:49:41;;;;;;;11.80;9.97;;;31.10;98.30;;;;;;5062107;28;20513;-75
2023/07/05 11:52:18;;;;;;;10.53;9.40;;;31.10;98.40;;;;;;5055190;28;20290;-81
2023/07/05 11:54:53;;;;;;;10.37;9.47;;;31.20;98.50;;;;;;5053649;28;20449;-80
2023/07/05 11:57:19;;;;;;;9.40;8.50;;;31.20;98.20;;;;;;5054620;28;20868;-74
2023/07/05 11:59:51;;;;;;;21.30;19.23;;;31.20;98.20;;;;;;5057962;28;20433;-82
2023/07/05 12:02:29;;;;;;;9.80;8.80;;;31.20;98.00;;;;;;5055187;28;20481;-78
2023/07/05 12:04:58;;;;;;;10.33;9.33;;;31.20;98.00;;;;;;5054135;28;20438;-75
2023/07/05 12:07:26;;;;;;;12.60;9.83;;;31.20;97.80;;;;;;5050051;28;20450;-78
2023/07/05 12:09:55;;;;;;;11.60;10.03;;;31.20;98.20;;;;;;5049202;28;20742;-80
2023/07/05 12:12:22;;;;;;;12.83;8.60;;;31.20;98.30;;;;;;5053743;28;20464;-75
2023/07/05 12:14:48;;;;;;;10.87;9.73;;;31.30;98.40;;;;;;5057493;28;20838;-80
2023/07/05 12:17:16;;;;;;;11.30;10.17;;;31.30;97.80;;;;;;5054943;28;20564;-75
2023/07/05 12:19:43;;;;;;;9.97;9.03;;;31.30;97.40;;;;;;5056340;28;20468;-75
2023/07/05 12:22:20;;;;;;;11.77;10.30;;;31.20;97.60;;;;;;5052531;28;20470;-74
2023/07/05 12:24:49;;;;;;;10.40;9.37;;;31.20;98.30;;;;;;5051304;28;20495;-81
2023/07/05 12:27:29;;;;;;;10.33;9.20;;;31.20;98.10;;;;;;5056392;28;20672;-81
2023/07/05 12:29:57;;;;;;;10.30;9.30;;;31.10;98.00;;;;;;5057373;28;21113;-74
2023/07/05 12:32:26;;;;;;;11.70;9.20;;;31.20;98.20;;;;;;5054317;28;20458;-82
2023/07/05 12:35:25;;;;;;;11.00;9.90;;;31.20;98.40;;;;;;5044406;28;21027;-76
2023/07/05 12:37:56;;;;;;;9.53;8.63;;;31.20;98.30;;;;;;5024654;28;20471;-76
2023/07/05 12:40:26;;;;;;;10.87;9.73;;;31.30;97.70;;;;;;5060538;28;20823;-75
2023/07/05 12:42:56;;;;;;;12.27;10.27;;;31.30;97.60;;;;;;5063925;28;20882;-75
2023/07/05 12:45:43;;;;;;;11.10;10.00;;;31.30;98.00;;;;;;5053179;28;20458;-82
2023/07/05 12:48:15;;;;;;;11.87;10.40;;;31.20;98.40;;;;;;5057745;28;21039;-80
2023/07/05 12:50:42;;;;;;;9.77;8.80;;;31.10;98.60;;;;;;5059793;28;20469;-75
2023/07/05 12:53:22;;;;;;;10.53;9.53;;;31.00;98.40;;;;;;5059074;28;20569;-82
2023/07/05 12:56:05;;;;;;;11.30;10.10;;;31.00;98.30;;;;;;5046139;28;20894;-82